createdAt,value
2018-01-13T00:00:31.712Z,4.80
2018-01-13T00:03:02.328Z,4.80
2018-01-13T00:05:32.658Z,4.80
2018-01-13T00:08:02.982Z,4.90
2018-01-13T00:10:34.608Z,4.80
2018-01-13T00:13:05.277Z,4.80
2018-01-13T00:15:36.224Z,4.80
2018-01-13T00:18:06.624Z,4.90
2018-01-13T00:20:38.700Z,4.80
2018-01-13T00:23:10.162Z,4.80
2018-01-13T00:25:41.064Z,4.70
2018-01-13T00:28:11.203Z,4.80
2018-01-13T00:30:41.560Z,4.70
2018-01-13T00:33:11.781Z,4.70
2018-01-13T00:35:42.219Z,4.70
2018-01-13T00:38:13.782Z,4.80
2018-01-13T00:40:45.038Z,4.70
2018-01-13T00:43:16.023Z,4.70
2018-01-13T00:45:46.701Z,4.80
2018-01-13T00:48:17.260Z,4.90
2018-01-13T00:50:47.681Z,4.80
2018-01-13T00:53:17.939Z,4.80
2018-01-13T00:55:49.278Z,4.70
2018-01-13T00:58:19.665Z,4.70
2018-01-13T01:00:49.904Z,4.70
2018-01-13T01:03:20.526Z,4.70
2018-01-13T01:05:50.673Z,4.70
2018-01-13T01:08:20.706Z,4.70
2018-01-13T01:10:51.270Z,4.70
2018-01-13T01:13:21.493Z,4.70
2018-01-13T01:15:52.263Z,4.70
2018-01-13T01:18:22.596Z,4.70
2018-01-13T01:20:55.360Z,4.80
2018-01-13T01:23:27.046Z,4.80
2018-01-13T01:25:57.458Z,4.80
2018-01-13T01:28:29.198Z,4.80
2018-01-13T01:30:59.601Z,4.80
2018-01-13T01:33:29.608Z,4.70
2018-01-13T01:36:01.467Z,4.70
2018-01-13T01:38:31.956Z,4.70
2018-01-13T01:41:02.206Z,4.80
2018-01-13T01:43:33.459Z,4.60
2018-01-13T01:46:04.195Z,4.60
2018-01-13T01:48:34.480Z,4.60
2018-01-13T01:51:06.887Z,4.60
2018-01-13T01:53:38.092Z,4.60
2018-01-13T01:56:08.365Z,4.60
2018-01-13T01:58:39.295Z,4.50
2018-01-13T02:01:10.192Z,4.50
2018-01-13T02:03:40.750Z,4.50
2018-01-13T02:06:11.529Z,4.50
2018-01-13T02:08:41.621Z,4.50
2018-01-13T02:11:11.884Z,4.50
2018-01-13T02:13:42.397Z,4.40
2018-01-13T02:16:12.974Z,4.40
2018-01-13T02:18:42.964Z,4.50
2018-01-13T02:21:14.421Z,4.40
2018-01-13T02:23:45.125Z,4.40
2018-01-13T02:26:16.413Z,4.40
2018-01-13T02:28:46.653Z,4.40
2018-01-13T02:31:17.126Z,4.40
2018-01-13T02:33:47.529Z,4.40
2018-01-13T02:36:17.769Z,4.40
2018-01-13T02:38:48.255Z,4.40
2018-01-13T02:41:19.097Z,4.40
2018-01-13T02:43:49.645Z,4.40
2018-01-13T02:46:20.237Z,4.40
2018-01-13T02:48:51.297Z,4.50
2018-01-13T02:51:22.301Z,4.40
2018-01-13T02:53:53.112Z,4.40
2018-01-13T02:56:23.497Z,4.40
2018-01-13T02:58:54.620Z,4.40
2018-01-13T03:01:25.720Z,4.40
2018-01-13T03:03:56.091Z,4.40
2018-01-13T03:06:26.430Z,4.40
2018-01-13T03:08:57.913Z,4.40
2018-01-13T03:11:28.512Z,4.40
2018-01-13T03:13:59.037Z,4.40
2018-01-13T03:16:29.568Z,4.40
2018-01-13T03:19:00.436Z,4.40
2018-01-13T03:21:30.719Z,4.40
2018-01-13T03:24:01.904Z,4.30
2018-01-13T03:26:32.777Z,4.30
2018-01-13T03:29:03.234Z,4.30
2018-01-13T03:31:34.078Z,4.30
2018-01-13T03:34:04.893Z,4.30
2018-01-13T03:36:35.444Z,4.40
2018-01-13T03:39:06.594Z,4.40
2018-01-13T03:41:37.693Z,4.40
2018-01-13T03:44:08.043Z,4.30
2018-01-13T03:46:38.300Z,4.30
2018-01-13T03:49:08.840Z,4.30
2018-01-13T03:51:39.455Z,4.30
2018-01-13T03:54:09.773Z,4.30
2018-01-13T03:56:40.071Z,4.30
2018-01-13T03:59:10.067Z,4.30
2018-01-13T04:01:41.140Z,4.30
2018-01-13T04:04:12.788Z,4.30
2018-01-13T04:06:43.120Z,4.30
2018-01-13T04:09:14.901Z,4.20
2018-01-13T04:11:45.257Z,4.20
2018-01-13T04:14:16.608Z,4.20
2018-01-13T04:16:46.961Z,4.20
2018-01-13T04:19:17.294Z,4.20
2018-01-13T04:21:47.316Z,4.20
2018-01-13T04:24:17.932Z,4.20
2018-01-13T04:26:48.504Z,4.20
2018-01-13T04:29:18.537Z,4.20
2018-01-13T04:31:48.693Z,4.20
2018-01-13T04:34:19.435Z,4.20
2018-01-13T04:36:50.096Z,4.30
2018-01-13T04:39:20.293Z,4.20
2018-01-13T04:41:50.601Z,4.20
2018-01-13T04:44:21.275Z,4.20
2018-01-13T04:46:51.615Z,4.20
2018-01-13T04:49:22.359Z,4.20
2018-01-13T04:51:52.485Z,4.20
2018-01-13T04:54:23.456Z,4.10
2018-01-13T04:56:53.546Z,4.10
2018-01-13T04:59:23.900Z,4.10
2018-01-13T05:01:54.146Z,4.20
2018-01-13T05:04:24.176Z,4.20
2018-01-13T05:06:54.597Z,4.10
2018-01-13T05:09:25.739Z,4.10
2018-01-13T05:11:55.958Z,4.10
2018-01-13T05:14:26.686Z,4.00
2018-01-13T05:16:57.549Z,4.10
2018-01-13T05:19:27.861Z,4.10
2018-01-13T05:21:58.156Z,4.10
2018-01-13T05:24:28.944Z,4.10
2018-01-13T05:26:59.236Z,4.10
2018-01-13T05:29:29.561Z,4.00
2018-01-13T05:31:59.696Z,4.00
2018-01-13T05:34:30.475Z,4.00
2018-01-13T05:37:01.350Z,4.00
2018-01-13T05:39:31.737Z,4.00
2018-01-13T05:42:01.784Z,4.10
2018-01-13T05:44:32.886Z,4.00
2018-01-13T05:47:03.768Z,4.10
2018-01-13T05:49:34.916Z,4.10
2018-01-13T05:52:05.234Z,4.10
2018-01-13T05:54:36.137Z,4.10
2018-01-13T05:57:06.122Z,4.10
2018-01-13T05:59:36.171Z,4.10
2018-01-13T06:02:06.429Z,4.20
2018-01-13T06:04:37.057Z,4.10
2018-01-13T06:07:07.283Z,4.10
2018-01-13T06:09:37.951Z,4.10
2018-01-13T06:12:08.322Z,4.20
2018-01-13T06:14:38.997Z,4.20
2018-01-13T06:17:09.337Z,4.20
2018-01-13T06:19:40.603Z,4.20
2018-01-13T06:22:11.745Z,4.20
2018-01-13T06:24:42.072Z,4.20
2018-01-13T06:27:12.341Z,4.20
2018-01-13T06:29:43.657Z,4.30
2018-01-13T06:32:14.662Z,4.20
2018-01-13T06:34:45.426Z,4.20
2018-01-13T06:37:16.268Z,4.30
2018-01-13T06:39:47.044Z,4.20
2018-01-13T06:42:17.841Z,4.20
2018-01-13T06:44:48.321Z,4.20
2018-01-13T06:47:18.817Z,4.10
2018-01-13T06:49:49.136Z,4.20
2018-01-13T06:52:19.439Z,4.20
2018-01-13T06:54:54.159Z,4.20
2018-01-13T07:01:00.311Z,4.10
2018-01-13T07:03:37.872Z,4.10
2018-01-13T07:06:09.209Z,4.10
2018-01-13T07:08:40.246Z,4.10
2018-01-13T07:11:11.136Z,4.10
2018-01-13T07:13:42.318Z,4.10
2018-01-13T07:16:12.668Z,4.10
2018-01-13T07:18:47.229Z,4.10
2018-01-13T07:21:20.199Z,4.10
2018-01-13T07:23:59.514Z,4.20
2018-01-13T07:26:30.761Z,4.20
2018-01-13T07:29:00.724Z,4.20
2018-01-13T07:31:30.836Z,4.20
2018-01-13T07:34:01.978Z,4.20
2018-01-13T07:36:33.062Z,4.30
2018-01-13T07:39:03.089Z,4.30
2018-01-13T07:41:34.615Z,4.30
2018-01-13T07:44:05.040Z,4.30
2018-01-13T07:46:35.085Z,4.20
2018-01-13T07:49:06.175Z,4.20
2018-01-13T07:51:36.832Z,4.20
2018-01-13T07:54:07.679Z,4.20
2018-01-13T07:56:38.034Z,4.30
2018-01-13T07:59:08.293Z,4.30
2018-01-13T08:01:38.555Z,4.20
2018-01-13T08:04:09.005Z,4.30
2018-01-13T08:06:39.739Z,4.20
2018-01-13T08:09:11.875Z,4.40
2018-01-13T08:11:41.897Z,4.30
2018-01-13T08:14:12.634Z,4.40
2018-01-13T08:16:42.656Z,4.40
2018-01-13T08:19:12.912Z,4.40
2018-01-13T08:21:44.225Z,4.40
2018-01-13T08:24:14.305Z,4.40
2018-01-13T08:26:44.881Z,4.40
2018-01-13T08:29:15.402Z,4.40
2018-01-13T08:31:46.033Z,4.40
2018-01-13T08:34:16.264Z,4.40
2018-01-13T08:36:46.540Z,4.50
2018-01-13T08:39:17.524Z,4.50
2018-01-13T08:41:48.950Z,4.60
2018-01-13T08:44:19.952Z,4.70
2018-01-13T08:46:51.909Z,4.70
2018-01-13T08:49:24.779Z,4.70
2018-01-13T08:51:55.570Z,4.80
2018-01-13T08:54:26.745Z,4.90
2018-01-13T08:56:59.567Z,4.90
2018-01-13T08:59:31.614Z,4.90
2018-01-13T09:02:03.982Z,5.00
2018-01-13T09:04:35.662Z,5.10
2018-01-13T09:07:06.234Z,5.10
2018-01-13T09:09:36.396Z,5.20
2018-01-13T09:12:06.476Z,5.10
2018-01-13T09:14:36.647Z,5.10
2018-01-13T09:17:06.793Z,5.10
2018-01-13T09:19:37.296Z,5.00
2018-01-13T09:22:07.475Z,5.00
2018-01-13T09:24:37.822Z,5.00
2018-01-13T09:27:08.299Z,4.90
2018-01-13T09:29:38.559Z,4.90
2018-01-13T09:32:09.708Z,4.80
2018-01-13T09:34:40.537Z,4.80
2018-01-13T09:37:10.806Z,4.90
2018-01-13T09:39:40.948Z,4.90
2018-01-13T09:42:11.407Z,4.90
2018-01-13T09:44:42.981Z,4.90
2018-01-13T09:47:13.149Z,4.90
2018-01-13T09:49:43.341Z,4.90
2018-01-13T09:52:13.707Z,4.90
2018-01-13T09:54:43.983Z,5.00
2018-01-13T09:57:14.338Z,5.00
2018-01-13T09:59:45.302Z,5.00
2018-01-13T10:02:16.705Z,5.10
2018-01-13T10:04:47.604Z,5.10
2018-01-13T10:07:18.713Z,5.20
2018-01-13T10:09:48.894Z,5.10
2018-01-13T10:12:19.652Z,5.20
2018-01-13T10:14:49.781Z,5.20
2018-01-13T10:17:26.772Z,5.20
2018-01-13T10:19:58.285Z,5.20
2018-01-13T10:22:28.532Z,5.20
2018-01-13T10:24:59.313Z,5.20
2018-01-13T10:27:30.180Z,5.40
2018-01-13T10:30:00.487Z,5.40
2018-01-13T10:32:30.903Z,5.50
2018-01-13T10:35:01.909Z,5.60
2018-01-13T10:37:32.149Z,5.60
2018-01-13T10:40:03.831Z,5.70
2018-01-13T10:42:34.045Z,5.70
2018-01-13T10:45:04.230Z,5.70
2018-01-13T10:47:34.935Z,5.90
2018-01-13T10:50:05.333Z,5.90
2018-01-13T10:52:35.655Z,6.00
2018-01-13T10:55:06.363Z,6.20
2018-01-13T10:58:06.657Z,6.40
2018-01-13T11:01:14.581Z,6.50
2018-01-13T11:04:21.462Z,6.70
2018-01-13T11:07:45.126Z,6.60
2018-01-13T11:11:00.932Z,7.10
2018-01-13T11:16:50.144Z,7.50
2018-01-13T11:20:16.260Z,7.50
2018-01-13T11:23:35.014Z,7.50
2018-01-13T11:26:48.876Z,7.40
2018-01-13T11:29:58.670Z,7.40
2018-01-13T11:33:08.553Z,7.00
2018-01-13T11:36:22.445Z,7.20
2018-01-13T11:39:34.387Z,7.30
2018-01-13T11:42:44.404Z,7.60
2018-01-13T11:45:58.053Z,7.90
2018-01-13T11:49:09.032Z,8.00
2018-01-13T11:52:22.643Z,7.70
2018-01-13T11:58:17.476Z,7.10
2018-01-13T12:00:48.505Z,7.10
2018-01-13T12:03:19.763Z,6.60
2018-01-13T12:05:50.197Z,6.60
2018-01-13T12:08:20.637Z,6.60
2018-01-13T12:10:50.974Z,6.60
2018-01-13T12:13:22.142Z,6.60
2018-01-13T12:15:52.463Z,6.60
2018-01-13T12:18:30.587Z,6.60
2018-01-13T12:21:00.721Z,6.50
2018-01-13T12:23:31.226Z,6.50
2018-01-13T12:26:01.502Z,6.60
2018-01-13T12:28:31.896Z,6.70
2018-01-13T12:31:02.089Z,6.70
2018-01-13T12:33:32.148Z,6.60
2018-01-13T12:36:03.012Z,6.70
2018-01-13T12:41:09.744Z,6.50
2018-01-13T12:44:10.513Z,6.40
2018-01-13T12:46:40.837Z,6.50
2018-01-13T12:49:11.160Z,6.40
2018-01-13T12:51:42.398Z,6.40
2018-01-13T12:54:12.524Z,6.40
2018-01-13T12:56:42.771Z,6.50
2018-01-13T12:59:14.040Z,6.50
2018-01-13T13:01:44.485Z,6.40
2018-01-13T13:04:14.677Z,6.40
2018-01-13T13:06:45.565Z,6.30
2018-01-13T13:09:15.817Z,6.30
2018-01-13T13:11:46.282Z,6.30
2018-01-13T13:14:17.755Z,6.30
2018-01-13T13:16:47.980Z,6.30
2018-01-13T13:19:19.639Z,6.30
2018-01-13T13:21:49.872Z,6.30
2018-01-13T13:24:20.380Z,6.30
2018-01-13T13:26:51.172Z,6.30
2018-01-13T13:29:22.528Z,6.30
2018-01-13T13:31:58.010Z,6.20
2018-01-13T13:34:28.900Z,6.20
2018-01-13T13:36:59.164Z,6.30
2018-01-13T13:39:29.613Z,6.30
2018-01-13T13:41:59.684Z,6.20
2018-01-13T13:44:29.985Z,6.20
2018-01-13T13:47:00.131Z,6.30
2018-01-13T13:49:30.642Z,6.20
2018-01-13T13:52:02.204Z,6.10
2018-01-13T13:54:32.454Z,6.10
2018-01-13T13:57:02.609Z,6.10
2018-01-13T13:59:34.858Z,6.10
2018-01-13T14:02:12.708Z,6.00
2018-01-13T14:04:50.762Z,5.90
2018-01-13T14:07:33.767Z,5.90
2018-01-13T14:10:12.669Z,5.90
2018-01-13T14:12:48.457Z,5.90
2018-01-13T14:15:18.713Z,5.90
2018-01-13T14:17:49.460Z,5.90
2018-01-13T14:20:19.690Z,5.90
2018-01-13T14:22:51.189Z,5.80
2018-01-13T14:25:21.461Z,5.80
2018-01-13T14:27:52.562Z,5.80
2018-01-13T14:30:23.023Z,5.80
2018-01-13T14:32:53.906Z,5.80
2018-01-13T14:35:24.221Z,5.80
2018-01-13T14:38:05.164Z,5.80
2018-01-13T14:40:41.775Z,5.70
2018-01-13T14:43:12.617Z,5.80
2018-01-13T14:50:21.062Z,5.70
2018-01-13T14:52:51.744Z,5.70
2018-01-13T14:55:22.847Z,5.70
2018-01-13T14:57:53.061Z,5.70
2018-01-13T15:00:24.200Z,5.70
2018-01-13T15:02:54.875Z,5.70
2018-01-13T15:05:25.127Z,5.70
2018-01-13T15:07:55.952Z,5.70
2018-01-13T15:10:26.344Z,5.70
2018-01-13T15:12:56.915Z,5.80
2018-01-13T15:15:28.432Z,5.70
2018-01-13T15:17:59.544Z,5.70
2018-01-13T15:20:30.206Z,5.60
2018-01-13T15:23:00.413Z,5.60
2018-01-13T15:25:32.004Z,5.50
2018-01-13T15:28:02.404Z,5.50
2018-01-13T15:30:37.758Z,5.50
2018-01-13T15:33:08.529Z,5.50
2018-01-13T15:35:39.698Z,5.50
2018-01-13T15:38:10.067Z,5.30
2018-01-13T15:40:40.488Z,5.30
2018-01-13T15:43:11.827Z,5.20
2018-01-13T15:45:43.300Z,5.20
2018-01-13T15:48:13.691Z,5.20
2018-01-13T15:50:46.521Z,5.30
2018-01-13T15:53:16.850Z,5.30
2018-01-13T15:55:53.720Z,5.30
2018-01-13T15:58:26.610Z,5.30
2018-01-13T16:00:56.888Z,5.30
2018-01-13T16:03:28.874Z,5.20
2018-01-13T16:06:02.100Z,5.00
2018-01-13T16:08:32.783Z,5.10
2018-01-13T16:11:04.285Z,5.10
2018-01-13T16:13:34.414Z,5.00
2018-01-13T16:16:04.644Z,5.00
2018-01-13T16:18:41.396Z,5.00
2018-01-13T16:21:11.889Z,4.90
2018-01-13T16:23:42.239Z,4.70
2018-01-13T16:26:12.913Z,4.70
2018-01-13T16:28:43.999Z,4.70
2018-01-13T16:31:14.417Z,4.70
2018-01-13T16:33:45.737Z,4.80
2018-01-13T16:36:15.975Z,4.70
2018-01-13T16:38:47.932Z,4.60
2018-01-13T16:41:19.535Z,4.60
2018-01-13T16:43:51.399Z,4.60
2018-01-13T16:46:26.839Z,4.70
2018-01-13T16:48:57.201Z,4.70
2018-01-13T16:51:28.459Z,4.70
2018-01-13T16:54:02.034Z,4.60
2018-01-13T16:56:36.146Z,4.60
2018-01-13T16:59:06.935Z,4.60
2018-01-13T17:01:39.472Z,4.60
2018-01-13T17:04:09.852Z,4.60
2018-01-13T17:06:40.385Z,4.60
2018-01-13T17:09:11.891Z,4.60
2018-01-13T17:11:43.027Z,4.60
2018-01-13T17:14:13.960Z,4.50
2018-01-13T17:16:44.614Z,4.50
2018-01-13T17:19:15.593Z,4.50
2018-01-13T17:21:46.049Z,4.50
2018-01-13T17:24:16.792Z,4.50
2018-01-13T17:26:47.731Z,4.40
2018-01-13T17:29:18.744Z,4.30
2018-01-13T17:31:49.256Z,4.30
2018-01-13T17:34:19.808Z,4.30
2018-01-13T17:36:50.347Z,4.30
2018-01-13T17:39:20.556Z,4.30
2018-01-13T17:41:50.655Z,4.30
2018-01-13T17:44:20.883Z,4.20
2018-01-13T17:46:51.450Z,4.20
2018-01-13T17:49:21.615Z,4.20
2018-01-13T17:51:51.868Z,4.20
2018-01-13T17:54:22.092Z,4.20
2018-01-13T17:56:53.138Z,4.10
2018-01-13T17:59:23.573Z,4.10
2018-01-13T18:01:54.118Z,4.10
2018-01-13T18:04:25.245Z,4.10
2018-01-13T18:06:55.484Z,4.10
2018-01-13T18:09:25.698Z,4.10
2018-01-13T18:11:56.629Z,4.00
2018-01-13T18:14:26.856Z,4.00
2018-01-13T18:16:58.109Z,4.00
2018-01-13T18:19:29.050Z,3.90
2018-01-13T18:22:00.885Z,3.90
2018-01-13T18:24:31.870Z,3.90
2018-01-13T18:27:04.286Z,3.90
2018-01-13T18:29:35.035Z,3.80
2018-01-13T18:32:04.884Z,3.80
2018-01-13T18:34:35.425Z,3.80
2018-01-13T18:37:05.904Z,3.90
2018-01-13T18:39:36.897Z,3.80
2018-01-13T18:42:07.722Z,3.80
2018-01-13T18:44:37.835Z,3.90
2018-01-13T18:47:08.595Z,3.80
2018-01-13T18:49:38.874Z,3.90
2018-01-13T18:52:10.160Z,3.80
2018-01-13T18:54:40.277Z,3.80
2018-01-13T18:57:10.385Z,3.80
2018-01-13T18:59:40.691Z,3.80
2018-01-13T19:02:11.166Z,3.80
2018-01-13T19:04:41.316Z,3.80
2018-01-13T19:07:12.177Z,3.70
2018-01-13T19:09:43.636Z,3.70
2018-01-13T19:12:14.033Z,3.70
2018-01-13T19:14:45.473Z,3.80
2018-01-13T19:17:15.806Z,3.80
2018-01-13T19:19:46.989Z,3.70
2018-01-13T19:22:17.262Z,3.70
2018-01-13T19:24:48.268Z,3.60
2018-01-13T19:27:19.375Z,3.50
2018-01-13T19:29:50.932Z,3.60
2018-01-13T19:32:21.585Z,3.60
2018-01-13T19:34:53.061Z,3.60
2018-01-13T19:37:23.445Z,3.60
2018-01-13T19:39:53.572Z,3.70
2018-01-13T19:42:24.548Z,3.70
2018-01-13T19:44:55.148Z,3.70
2018-01-13T19:47:26.608Z,3.60
2018-01-13T19:49:56.740Z,3.60
2018-01-13T19:52:26.836Z,3.60
2018-01-13T19:54:57.045Z,3.60
2018-01-13T19:57:27.356Z,3.60
2018-01-13T19:59:57.830Z,3.50
2018-01-13T20:02:28.400Z,3.50
2018-01-13T20:05:00.226Z,3.50
2018-01-13T20:07:30.459Z,3.50
2018-01-13T20:10:00.694Z,3.50
2018-01-13T20:12:31.883Z,3.30
2018-01-13T20:15:02.182Z,3.30
2018-01-13T20:17:32.865Z,3.30
2018-01-13T20:20:02.980Z,3.20
2018-01-13T20:22:34.847Z,3.20
2018-01-13T20:25:05.356Z,3.30
2018-01-13T20:27:35.601Z,3.30
2018-01-13T20:30:05.887Z,3.30
2018-01-13T20:32:37.209Z,3.30
2018-01-13T20:37:48.438Z,3.30
2018-01-13T20:40:18.776Z,3.30
2018-01-13T20:42:49.525Z,3.40
2018-01-13T20:45:20.003Z,3.40
2018-01-13T20:47:50.422Z,3.30
2018-01-13T20:50:20.894Z,3.30
2018-01-13T20:52:51.240Z,3.20
2018-01-13T20:55:22.438Z,3.20
2018-01-13T20:57:53.021Z,3.20
2018-01-13T21:00:57.942Z,3.20
2018-01-13T21:06:04.242Z,3.20
2018-01-13T21:08:34.715Z,3.20
2018-01-13T21:11:05.169Z,3.20
2018-01-13T21:13:36.606Z,3.10
2018-01-13T21:16:07.140Z,3.10
2018-01-13T21:18:37.474Z,3.00
2018-01-13T21:21:08.088Z,2.90
2018-01-13T21:23:38.418Z,2.90
2018-01-13T21:26:08.906Z,2.80
2018-01-13T21:28:39.133Z,2.80
2018-01-13T21:31:09.397Z,2.90
2018-01-13T21:33:39.601Z,2.80
2018-01-13T21:36:13.331Z,2.80
2018-01-13T21:38:51.019Z,2.80
2018-01-13T21:41:21.849Z,2.70
2018-01-13T21:43:52.256Z,2.70
2018-01-13T21:48:58.117Z,2.70
2018-01-13T21:51:28.252Z,2.80
2018-01-13T21:53:58.736Z,2.90
2018-01-13T21:56:28.900Z,2.90
2018-01-13T21:58:59.141Z,2.80
2018-01-13T22:01:29.484Z,2.80
2018-01-13T22:03:59.715Z,2.70
2018-01-13T22:06:30.116Z,2.70
2018-01-13T22:09:00.279Z,2.60
2018-01-13T22:11:32.193Z,2.70
2018-01-13T22:14:02.307Z,2.70
2018-01-13T22:16:32.647Z,2.80
2018-01-13T22:19:02.854Z,2.70
2018-01-13T22:21:33.319Z,2.60
2018-01-13T22:24:04.476Z,2.50
2018-01-13T22:26:35.525Z,2.60
2018-01-13T22:29:06.065Z,2.50
2018-01-13T22:31:36.279Z,2.40
2018-01-13T22:34:07.034Z,2.50
2018-01-13T22:36:38.751Z,2.40
2018-01-13T22:39:09.792Z,2.40
2018-01-13T22:41:41.130Z,2.40
2018-01-13T22:44:11.917Z,2.40
2018-01-13T22:46:41.992Z,2.40
2018-01-13T22:49:12.784Z,2.30
2018-01-13T22:51:42.819Z,2.30
2018-01-13T22:54:13.700Z,2.20
2018-01-13T22:56:44.099Z,2.20
2018-01-13T22:59:15.318Z,2.30
2018-01-13T23:01:47.217Z,2.30
2018-01-13T23:04:18.221Z,2.20
2018-01-13T23:06:48.460Z,2.20
2018-01-13T23:09:18.579Z,2.10
2018-01-13T23:11:49.050Z,2.10
2018-01-13T23:14:19.588Z,2.20
2018-01-13T23:16:49.588Z,2.20
2018-01-13T23:19:19.808Z,2.30
2018-01-13T23:21:50.010Z,2.30
2018-01-13T23:24:20.786Z,2.20
2018-01-13T23:26:51.520Z,2.20
2018-01-13T23:29:22.412Z,2.10
2018-01-13T23:31:53.340Z,2.10
2018-01-13T23:34:24.149Z,2.10
2018-01-13T23:36:54.632Z,2.10
2018-01-13T23:39:24.645Z,2.20
2018-01-13T23:41:55.004Z,2.20
2018-01-13T23:44:25.348Z,2.20
2018-01-13T23:46:55.318Z,2.20
2018-01-13T23:49:25.699Z,2.20
2018-01-13T23:51:55.823Z,2.10
2018-01-13T23:54:26.584Z,2.10
2018-01-13T23:56:56.769Z,2.10
2018-01-13T23:59:26.824Z,2.10
